sensor_id;sensor_type;location;lat;lon;timestamp;P1;durP1;ratioP1;P2;durP2;ratioP2
6671;SDS011;3372;48.690;12.362;2024-03-02T00:00:25;63.05;;;33.08;;
6671;SDS011;3372;48.690;12.362;2024-03-02T00:05:19;58.20;;;30.33;;
6671;SDS011;3372;48.690;12.362;2024-03-02T00:10:14;58.08;;;32.45;;
6671;SDS011;3372;48.690;12.362;2024-03-02T00:12:45;66.35;;;34.30;;
6671;SDS011;3372;48.690;12.362;2024-03-02T00:17:55;64.45;;;33.75;;
6671;SDS011;3372;48.690;12.362;2024-03-02T00:20:24;71.63;;;34.60;;
6671;SDS011;3372;48.690;12.362;2024-03-02T00:22:53;69.68;;;35.03;;
6671;SDS011;3372;48.690;12.362;2024-03-02T00:25:22;66.78;;;33.92;;
6671;SDS011;3372;48.690;12.362;2024-03-02T00:27:50;67.55;;;33.72;;
6671;SDS011;3372;48.690;12.362;2024-03-02T00:33:13;74.13;;;35.42;;
6671;SDS011;3372;48.690;12.362;2024-03-02T00:35:39;72.63;;;34.10;;
6671;SDS011;3372;48.690;12.362;2024-03-02T00:38:06;65.28;;;34.92;;
6671;SDS011;3372;48.690;12.362;2024-03-02T00:40:32;57.25;;;33.10;;
6671;SDS011;3372;48.690;12.362;2024-03-02T00:43:00;65.55;;;35.10;;
6671;SDS011;3372;48.690;12.362;2024-03-02T00:45:30;64.97;;;34.90;;
6671;SDS011;3372;48.690;12.362;2024-03-02T00:47:56;63.20;;;34.08;;
6671;SDS011;3372;48.690;12.362;2024-03-02T00:50:23;59.15;;;33.22;;
6671;SDS011;3372;48.690;12.362;2024-03-02T00:52:49;66.93;;;33.90;;
6671;SDS011;3372;48.690;12.362;2024-03-02T00:55:15;60.70;;;32.33;;
6671;SDS011;3372;48.690;12.362;2024-03-02T00:57:41;61.47;;;35.47;;
6671;SDS011;3372;48.690;12.362;2024-03-02T01:00:09;58.42;;;32.78;;
6671;SDS011;3372;48.690;12.362;2024-03-02T01:02:37;60.33;;;31.45;;
6671;SDS011;3372;48.690;12.362;2024-03-02T01:05:03;59.30;;;31.48;;
6671;SDS011;3372;48.690;12.362;2024-03-02T01:07:30;57.47;;;32.67;;
6671;SDS011;3372;48.690;12.362;2024-03-02T01:09:56;58.92;;;31.67;;
6671;SDS011;3372;48.690;12.362;2024-03-02T01:12:22;59.88;;;31.83;;
6671;SDS011;3372;48.690;12.362;2024-03-02T01:14:48;60.50;;;32.45;;
6671;SDS011;3372;48.690;12.362;2024-03-02T01:17:14;61.58;;;33.75;;
6671;SDS011;3372;48.690;12.362;2024-03-02T01:19:41;58.45;;;31.65;;
6671;SDS011;3372;48.690;12.362;2024-03-02T01:24:33;60.45;;;32.55;;
6671;SDS011;3372;48.690;12.362;2024-03-02T01:26:59;62.78;;;32.88;;
6671;SDS011;3372;48.690;12.362;2024-03-02T01:29:25;57.05;;;30.67;;
6671;SDS011;3372;48.690;12.362;2024-03-02T01:31:51;66.60;;;33.83;;
6671;SDS011;3372;48.690;12.362;2024-03-02T01:34:18;58.20;;;31.65;;
6671;SDS011;3372;48.690;12.362;2024-03-02T01:36:45;60.10;;;31.77;;
6671;SDS011;3372;48.690;12.362;2024-03-02T01:39:12;59.50;;;32.38;;
6671;SDS011;3372;48.690;12.362;2024-03-02T01:41:38;57.03;;;31.13;;
6671;SDS011;3372;48.690;12.362;2024-03-02T01:44:05;55.80;;;33.08;;
6671;SDS011;3372;48.690;12.362;2024-03-02T01:46:32;58.25;;;33.92;;
6671;SDS011;3372;48.690;12.362;2024-03-02T01:48:58;59.20;;;32.65;;
6671;SDS011;3372;48.690;12.362;2024-03-02T01:51:25;57.05;;;31.73;;
6671;SDS011;3372;48.690;12.362;2024-03-02T01:53:51;55.88;;;32.63;;
6671;SDS011;3372;48.690;12.362;2024-03-02T01:56:18;52.67;;;29.73;;
6671;SDS011;3372;48.690;12.362;2024-03-02T01:58:44;51.08;;;30.20;;
6671;SDS011;3372;48.690;12.362;2024-03-02T02:01:11;51.00;;;30.10;;
6671;SDS011;3372;48.690;12.362;2024-03-02T02:03:37;46.53;;;27.25;;
6671;SDS011;3372;48.690;12.362;2024-03-02T02:06:03;48.65;;;29.65;;
6671;SDS011;3372;48.690;12.362;2024-03-02T02:08:29;49.13;;;26.92;;
6671;SDS011;3372;48.690;12.362;2024-03-02T02:10:55;49.03;;;27.50;;
6671;SDS011;3372;48.690;12.362;2024-03-02T02:13:21;45.80;;;27.70;;
6671;SDS011;3372;48.690;12.362;2024-03-02T02:15:47;44.22;;;26.13;;
6671;SDS011;3372;48.690;12.362;2024-03-02T02:18:13;50.58;;;29.33;;
6671;SDS011;3372;48.690;12.362;2024-03-02T02:20:39;54.35;;;28.20;;
6671;SDS011;3372;48.690;12.362;2024-03-02T02:23:05;50.45;;;29.10;;
6671;SDS011;3372;48.690;12.362;2024-03-02T02:25:33;53.53;;;29.20;;
6671;SDS011;3372;48.690;12.362;2024-03-02T02:27:59;49.55;;;29.48;;
6671;SDS011;3372;48.690;12.362;2024-03-02T02:30:26;59.65;;;33.42;;
6671;SDS011;3372;48.690;12.362;2024-03-02T02:32:52;60.53;;;33.50;;
6671;SDS011;3372;48.690;12.362;2024-03-02T02:35:18;63.25;;;35.05;;
6671;SDS011;3372;48.690;12.362;2024-03-02T02:37:47;57.45;;;30.95;;
6671;SDS011;3372;48.690;12.362;2024-03-02T02:40:14;61.00;;;34.10;;
6671;SDS011;3372;48.690;12.362;2024-03-02T02:42:40;59.92;;;33.10;;
6671;SDS011;3372;48.690;12.362;2024-03-02T02:45:06;61.45;;;34.10;;
6671;SDS011;3372;48.690;12.362;2024-03-02T02:47:32;58.75;;;33.78;;
6671;SDS011;3372;48.690;12.362;2024-03-02T02:50:02;57.08;;;34.60;;
6671;SDS011;3372;48.690;12.362;2024-03-02T02:52:34;55.08;;;32.30;;
6671;SDS011;3372;48.690;12.362;2024-03-02T02:57:27;59.58;;;31.38;;
6671;SDS011;3372;48.690;12.362;2024-03-02T02:59:55;55.42;;;29.40;;
6671;SDS011;3372;48.690;12.362;2024-03-02T03:02:22;52.72;;;29.55;;
6671;SDS011;3372;48.690;12.362;2024-03-02T03:04:48;55.83;;;32.22;;
6671;SDS011;3372;48.690;12.362;2024-03-02T03:07:14;60.50;;;32.95;;
6671;SDS011;3372;48.690;12.362;2024-03-02T03:09:39;54.55;;;32.13;;
6671;SDS011;3372;48.690;12.362;2024-03-02T03:12:05;52.33;;;29.98;;
6671;SDS011;3372;48.690;12.362;2024-03-02T03:14:31;57.55;;;31.38;;
6671;SDS011;3372;48.690;12.362;2024-03-02T03:16:57;58.42;;;31.40;;
6671;SDS011;3372;48.690;12.362;2024-03-02T03:19:23;57.70;;;30.33;;
6671;SDS011;3372;48.690;12.362;2024-03-02T03:21:49;57.05;;;31.52;;
6671;SDS011;3372;48.690;12.362;2024-03-02T03:24:15;54.13;;;29.55;;
6671;SDS011;3372;48.690;12.362;2024-03-02T03:26:41;58.33;;;32.47;;
6671;SDS011;3372;48.690;12.362;2024-03-02T03:29:07;48.45;;;27.52;;
6671;SDS011;3372;48.690;12.362;2024-03-02T03:31:33;47.90;;;28.35;;
6671;SDS011;3372;48.690;12.362;2024-03-02T03:33:59;50.72;;;27.77;;
6671;SDS011;3372;48.690;12.362;2024-03-02T03:36:25;51.70;;;27.13;;
6671;SDS011;3372;48.690;12.362;2024-03-02T03:38:51;46.42;;;26.80;;
6671;SDS011;3372;48.690;12.362;2024-03-02T03:41:17;42.22;;;26.08;;
6671;SDS011;3372;48.690;12.362;2024-03-02T03:43:43;48.50;;;27.10;;
6671;SDS011;3372;48.690;12.362;2024-03-02T03:46:09;43.05;;;26.15;;
6671;SDS011;3372;48.690;12.362;2024-03-02T03:48:35;42.35;;;24.05;;
6671;SDS011;3372;48.690;12.362;2024-03-02T03:51:01;40.75;;;24.42;;
6671;SDS011;3372;48.690;12.362;2024-03-02T03:53:27;42.60;;;25.33;;
6671;SDS011;3372;48.690;12.362;2024-03-02T03:55:53;42.13;;;25.80;;
6671;SDS011;3372;48.690;12.362;2024-03-02T03:58:19;42.88;;;26.23;;
6671;SDS011;3372;48.690;12.362;2024-03-02T04:00:45;42.63;;;24.70;;
6671;SDS011;3372;48.690;12.362;2024-03-02T04:03:11;39.42;;;23.33;;
6671;SDS011;3372;48.690;12.362;2024-03-02T04:05:38;39.53;;;24.98;;
6671;SDS011;3372;48.690;12.362;2024-03-02T04:08:04;37.72;;;23.75;;
6671;SDS011;3372;48.690;12.362;2024-03-02T04:10:30;37.92;;;23.55;;
6671;SDS011;3372;48.690;12.362;2024-03-02T04:12:56;41.63;;;24.90;;
6671;SDS011;3372;48.690;12.362;2024-03-02T04:15:22;45.13;;;25.63;;
6671;SDS011;3372;48.690;12.362;2024-03-02T04:17:48;45.53;;;24.08;;
6671;SDS011;3372;48.690;12.362;2024-03-02T04:20:14;45.80;;;25.77;;
6671;SDS011;3372;48.690;12.362;2024-03-02T04:22:40;42.75;;;25.85;;
6671;SDS011;3372;48.690;12.362;2024-03-02T04:25:06;44.08;;;25.70;;
6671;SDS011;3372;48.690;12.362;2024-03-02T04:27:36;40.67;;;24.10;;
6671;SDS011;3372;48.690;12.362;2024-03-02T04:30:02;41.67;;;23.83;;
6671;SDS011;3372;48.690;12.362;2024-03-02T04:34:55;43.88;;;25.42;;
6671;SDS011;3372;48.690;12.362;2024-03-02T04:37:24;44.20;;;24.98;;
6671;SDS011;3372;48.690;12.362;2024-03-02T04:39:51;47.80;;;27.02;;
6671;SDS011;3372;48.690;12.362;2024-03-02T04:42:19;45.92;;;27.20;;
6671;SDS011;3372;48.690;12.362;2024-03-02T04:44:45;45.55;;;26.33;;
6671;SDS011;3372;48.690;12.362;2024-03-02T04:47:11;45.45;;;26.40;;
6671;SDS011;3372;48.690;12.362;2024-03-02T04:49:37;56.88;;;32.35;;
6671;SDS011;3372;48.690;12.362;2024-03-02T04:52:03;60.95;;;32.42;;
6671;SDS011;3372;48.690;12.362;2024-03-02T04:54:29;49.97;;;30.42;;
6671;SDS011;3372;48.690;12.362;2024-03-02T04:57:18;48.53;;;28.92;;
6671;SDS011;3372;48.690;12.362;2024-03-02T04:59:44;54.85;;;31.05;;
6671;SDS011;3372;48.690;12.362;2024-03-02T05:02:10;61.75;;;32.30;;
6671;SDS011;3372;48.690;12.362;2024-03-02T05:04:38;71.45;;;36.78;;
6671;SDS011;3372;48.690;12.362;2024-03-02T05:07:05;52.25;;;30.80;;
6671;SDS011;3372;48.690;12.362;2024-03-02T05:09:31;97.97;;;51.10;;
6671;SDS011;3372;48.690;12.362;2024-03-02T05:11:57;71.22;;;37.63;;
6671;SDS011;3372;48.690;12.362;2024-03-02T05:14:41;48.83;;;27.92;;
6671;SDS011;3372;48.690;12.362;2024-03-02T05:17:07;47.08;;;27.02;;
6671;SDS011;3372;48.690;12.362;2024-03-02T05:19:33;44.80;;;26.45;;
6671;SDS011;3372;48.690;12.362;2024-03-02T05:21:59;43.90;;;25.98;;
6671;SDS011;3372;48.690;12.362;2024-03-02T05:24:25;49.00;;;29.40;;
6671;SDS011;3372;48.690;12.362;2024-03-02T05:26:52;49.33;;;27.15;;
6671;SDS011;3372;48.690;12.362;2024-03-02T05:29:18;46.67;;;26.73;;
6671;SDS011;3372;48.690;12.362;2024-03-02T05:31:45;44.78;;;26.23;;
6671;SDS011;3372;48.690;12.362;2024-03-02T05:34:11;43.92;;;26.17;;
6671;SDS011;3372;48.690;12.362;2024-03-02T05:36:37;48.47;;;28.08;;
6671;SDS011;3372;48.690;12.362;2024-03-02T05:39:04;48.75;;;27.92;;
6671;SDS011;3372;48.690;12.362;2024-03-02T05:41:33;40.85;;;24.98;;
6671;SDS011;3372;48.690;12.362;2024-03-02T05:43:59;52.13;;;29.42;;
6671;SDS011;3372;48.690;12.362;2024-03-02T05:46:26;49.22;;;28.27;;
6671;SDS011;3372;48.690;12.362;2024-03-02T05:48:52;43.85;;;27.08;;
6671;SDS011;3372;48.690;12.362;2024-03-02T05:51:18;44.88;;;25.70;;
6671;SDS011;3372;48.690;12.362;2024-03-02T05:53:44;44.88;;;27.95;;
6671;SDS011;3372;48.690;12.362;2024-03-02T05:56:10;50.08;;;28.63;;
6671;SDS011;3372;48.690;12.362;2024-03-02T05:58:37;45.20;;;27.35;;
6671;SDS011;3372;48.690;12.362;2024-03-02T06:01:18;45.30;;;26.60;;
6671;SDS011;3372;48.690;12.362;2024-03-02T06:03:44;41.50;;;25.55;;
6671;SDS011;3372;48.690;12.362;2024-03-02T06:06:10;43.88;;;25.23;;
6671;SDS011;3372;48.690;12.362;2024-03-02T06:08:36;44.60;;;26.15;;
6671;SDS011;3372;48.690;12.362;2024-03-02T06:11:02;48.17;;;27.05;;
6671;SDS011;3372;48.690;12.362;2024-03-02T06:13:28;46.67;;;26.80;;
6671;SDS011;3372;48.690;12.362;2024-03-02T06:15:54;44.13;;;25.13;;
6671;SDS011;3372;48.690;12.362;2024-03-02T06:18:20;45.13;;;26.38;;
6671;SDS011;3372;48.690;12.362;2024-03-02T06:20:46;45.92;;;26.13;;
6671;SDS011;3372;48.690;12.362;2024-03-02T06:23:12;43.40;;;27.15;;
6671;SDS011;3372;48.690;12.362;2024-03-02T06:25:38;51.55;;;29.90;;
6671;SDS011;3372;48.690;12.362;2024-03-02T06:28:04;60.05;;;32.17;;
6671;SDS011;3372;48.690;12.362;2024-03-02T06:30:30;48.88;;;29.95;;
6671;SDS011;3372;48.690;12.362;2024-03-02T06:32:56;50.97;;;30.95;;
6671;SDS011;3372;48.690;12.362;2024-03-02T06:35:22;56.58;;;31.83;;
6671;SDS011;3372;48.690;12.362;2024-03-02T06:37:48;54.15;;;31.23;;
6671;SDS011;3372;48.690;12.362;2024-03-02T06:40:14;51.58;;;29.83;;
6671;SDS011;3372;48.690;12.362;2024-03-02T06:42:41;47.92;;;28.02;;
6671;SDS011;3372;48.690;12.362;2024-03-02T06:45:07;48.50;;;28.73;;
6671;SDS011;3372;48.690;12.362;2024-03-02T06:47:33;53.22;;;28.95;;
6671;SDS011;3372;48.690;12.362;2024-03-02T06:49:59;42.30;;;26.13;;
6671;SDS011;3372;48.690;12.362;2024-03-02T06:52:24;40.17;;;26.13;;
6671;SDS011;3372;48.690;12.362;2024-03-02T06:54:50;40.78;;;25.92;;
6671;SDS011;3372;48.690;12.362;2024-03-02T06:57:16;49.53;;;27.55;;
6671;SDS011;3372;48.690;12.362;2024-03-02T06:59:44;41.60;;;24.65;;
6671;SDS011;3372;48.690;12.362;2024-03-02T07:02:10;41.63;;;25.98;;
6671;SDS011;3372;48.690;12.362;2024-03-02T07:04:37;39.75;;;24.40;;
6671;SDS011;3372;48.690;12.362;2024-03-02T07:07:03;38.05;;;22.95;;
6671;SDS011;3372;48.690;12.362;2024-03-02T07:09:29;42.33;;;25.83;;
6671;SDS011;3372;48.690;12.362;2024-03-02T07:11:55;42.35;;;25.10;;
6671;SDS011;3372;48.690;12.362;2024-03-02T07:14:21;37.70;;;24.33;;
6671;SDS011;3372;48.690;12.362;2024-03-02T07:17:07;39.65;;;23.90;;
6671;SDS011;3372;48.690;12.362;2024-03-02T07:19:33;39.97;;;24.40;;
6671;SDS011;3372;48.690;12.362;2024-03-02T07:21:59;41.45;;;25.25;;
6671;SDS011;3372;48.690;12.362;2024-03-02T07:24:25;37.53;;;23.42;;
6671;SDS011;3372;48.690;12.362;2024-03-02T07:26:51;42.88;;;25.67;;
6671;SDS011;3372;48.690;12.362;2024-03-02T07:29:17;41.92;;;24.52;;
6671;SDS011;3372;48.690;12.362;2024-03-02T07:31:44;42.13;;;24.48;;
6671;SDS011;3372;48.690;12.362;2024-03-02T07:34:10;47.83;;;26.42;;
6671;SDS011;3372;48.690;12.362;2024-03-02T07:36:36;46.05;;;26.75;;
6671;SDS011;3372;48.690;12.362;2024-03-02T07:39:06;40.33;;;25.10;;
6671;SDS011;3372;48.690;12.362;2024-03-02T07:41:33;40.30;;;24.02;;
6671;SDS011;3372;48.690;12.362;2024-03-02T07:43:59;42.97;;;25.33;;
6671;SDS011;3372;48.690;12.362;2024-03-02T07:46:25;38.17;;;23.25;;
6671;SDS011;3372;48.690;12.362;2024-03-02T07:51:19;36.50;;;22.95;;
6671;SDS011;3372;48.690;12.362;2024-03-02T07:53:45;43.45;;;24.90;;
6671;SDS011;3372;48.690;12.362;2024-03-02T07:56:11;46.47;;;26.35;;
6671;SDS011;3372;48.690;12.362;2024-03-02T07:58:37;44.80;;;27.05;;
6671;SDS011;3372;48.690;12.362;2024-03-02T08:01:03;40.13;;;23.83;;
6671;SDS011;3372;48.690;12.362;2024-03-02T08:03:29;44.03;;;25.42;;
6671;SDS011;3372;48.690;12.362;2024-03-02T08:05:57;43.22;;;26.35;;
6671;SDS011;3372;48.690;12.362;2024-03-02T08:08:23;44.83;;;25.90;;
6671;SDS011;3372;48.690;12.362;2024-03-02T08:10:49;46.72;;;25.92;;
6671;SDS011;3372;48.690;12.362;2024-03-02T08:13:15;39.25;;;24.92;;
6671;SDS011;3372;48.690;12.362;2024-03-02T08:15:41;39.13;;;23.30;;
6671;SDS011;3372;48.690;12.362;2024-03-02T08:18:07;36.70;;;22.58;;
6671;SDS011;3372;48.690;12.362;2024-03-02T08:20:33;39.70;;;23.83;;
6671;SDS011;3372;48.690;12.362;2024-03-02T08:22:59;41.17;;;24.05;;
6671;SDS011;3372;48.690;12.362;2024-03-02T08:25:24;35.92;;;22.52;;
6671;SDS011;3372;48.690;12.362;2024-03-02T08:27:50;37.00;;;23.73;;
6671;SDS011;3372;48.690;12.362;2024-03-02T08:30:16;42.88;;;23.75;;
6671;SDS011;3372;48.690;12.362;2024-03-02T08:32:43;43.33;;;24.90;;
6671;SDS011;3372;48.690;12.362;2024-03-02T08:37:37;38.58;;;22.73;;
6671;SDS011;3372;48.690;12.362;2024-03-02T08:40:03;37.53;;;21.73;;
6671;SDS011;3372;48.690;12.362;2024-03-02T08:42:29;38.53;;;22.20;;
6671;SDS011;3372;48.690;12.362;2024-03-02T08:44:55;38.92;;;23.58;;
6671;SDS011;3372;48.690;12.362;2024-03-02T08:47:21;39.00;;;23.27;;
6671;SDS011;3372;48.690;12.362;2024-03-02T08:49:47;42.78;;;25.95;;
6671;SDS011;3372;48.690;12.362;2024-03-02T08:52:13;39.47;;;23.90;;
6671;SDS011;3372;48.690;12.362;2024-03-02T08:54:41;43.35;;;22.95;;
6671;SDS011;3372;48.690;12.362;2024-03-02T08:57:07;43.92;;;23.58;;
6671;SDS011;3372;48.690;12.362;2024-03-02T08:59:33;44.80;;;23.40;;
6671;SDS011;3372;48.690;12.362;2024-03-02T09:01:59;44.70;;;24.98;;
6671;SDS011;3372;48.690;12.362;2024-03-02T09:04:25;49.50;;;23.95;;
6671;SDS011;3372;48.690;12.362;2024-03-02T09:06:51;51.50;;;26.92;;
6671;SDS011;3372;48.690;12.362;2024-03-02T09:09:17;51.95;;;26.58;;
6671;SDS011;3372;48.690;12.362;2024-03-02T09:11:43;48.78;;;25.52;;
6671;SDS011;3372;48.690;12.362;2024-03-02T09:14:09;51.33;;;24.83;;
6671;SDS011;3372;48.690;12.362;2024-03-02T09:16:35;58.63;;;26.38;;
6671;SDS011;3372;48.690;12.362;2024-03-02T09:19:01;55.97;;;27.10;;
6671;SDS011;3372;48.690;12.362;2024-03-02T09:21:27;63.65;;;27.27;;
6671;SDS011;3372;48.690;12.362;2024-03-02T09:23:54;53.38;;;26.00;;
6671;SDS011;3372;48.690;12.362;2024-03-02T09:26:21;56.78;;;27.70;;
6671;SDS011;3372;48.690;12.362;2024-03-02T09:28:49;57.92;;;26.83;;
6671;SDS011;3372;48.690;12.362;2024-03-02T09:31:15;56.67;;;26.75;;
6671;SDS011;3372;48.690;12.362;2024-03-02T09:33:41;58.28;;;26.73;;
6671;SDS011;3372;48.690;12.362;2024-03-02T09:36:20;60.72;;;28.27;;
6671;SDS011;3372;48.690;12.362;2024-03-02T09:38:47;55.10;;;27.33;;
6671;SDS011;3372;48.690;12.362;2024-03-02T09:41:13;57.30;;;27.88;;
6671;SDS011;3372;48.690;12.362;2024-03-02T09:43:39;60.58;;;28.27;;
6671;SDS011;3372;48.690;12.362;2024-03-02T09:46:07;61.90;;;28.15;;
6671;SDS011;3372;48.690;12.362;2024-03-02T09:48:35;61.33;;;27.55;;
6671;SDS011;3372;48.690;12.362;2024-03-02T09:51:01;56.70;;;27.80;;
6671;SDS011;3372;48.690;12.362;2024-03-02T09:53:32;60.40;;;27.63;;
6671;SDS011;3372;48.690;12.362;2024-03-02T09:55:59;60.63;;;27.52;;
6671;SDS011;3372;48.690;12.362;2024-03-02T09:58:26;57.72;;;29.00;;
6671;SDS011;3372;48.690;12.362;2024-03-02T10:03:18;56.38;;;28.42;;
6671;SDS011;3372;48.690;12.362;2024-03-02T10:05:46;56.05;;;27.50;;
6671;SDS011;3372;48.690;12.362;2024-03-02T10:08:12;57.65;;;28.02;;
6671;SDS011;3372;48.690;12.362;2024-03-02T10:10:40;57.08;;;28.05;;
6671;SDS011;3372;48.690;12.362;2024-03-02T10:13:08;58.25;;;27.50;;
6671;SDS011;3372;48.690;12.362;2024-03-02T10:15:34;61.80;;;29.40;;
6671;SDS011;3372;48.690;12.362;2024-03-02T10:18:02;55.63;;;28.95;;
6671;SDS011;3372;48.690;12.362;2024-03-02T10:20:28;52.90;;;28.75;;
6671;SDS011;3372;48.690;12.362;2024-03-02T10:22:54;55.28;;;27.25;;
6671;SDS011;3372;48.690;12.362;2024-03-02T10:25:32;55.55;;;28.80;;
6671;SDS011;3372;48.690;12.362;2024-03-02T10:27:59;57.53;;;28.65;;
6671;SDS011;3372;48.690;12.362;2024-03-02T10:30:28;64.07;;;30.48;;
6671;SDS011;3372;48.690;12.362;2024-03-02T10:32:54;55.60;;;30.20;;
6671;SDS011;3372;48.690;12.362;2024-03-02T10:35:21;54.00;;;29.38;;
6671;SDS011;3372;48.690;12.362;2024-03-02T10:37:48;53.55;;;28.55;;
6671;SDS011;3372;48.690;12.362;2024-03-02T10:40:14;57.05;;;29.33;;
6671;SDS011;3372;48.690;12.362;2024-03-02T10:42:41;57.05;;;28.33;;
6671;SDS011;3372;48.690;12.362;2024-03-02T10:45:08;50.78;;;25.92;;
6671;SDS011;3372;48.690;12.362;2024-03-02T10:47:35;54.53;;;29.98;;
6671;SDS011;3372;48.690;12.362;2024-03-02T10:50:02;53.75;;;30.42;;
6671;SDS011;3372;48.690;12.362;2024-03-02T10:52:33;53.63;;;28.45;;
6671;SDS011;3372;48.690;12.362;2024-03-02T10:54:59;53.72;;;28.73;;
6671;SDS011;3372;48.690;12.362;2024-03-02T10:57:25;51.90;;;28.55;;
6671;SDS011;3372;48.690;12.362;2024-03-02T10:59:52;52.58;;;29.65;;
6671;SDS011;3372;48.690;12.362;2024-03-02T11:02:22;54.53;;;28.58;;
6671;SDS011;3372;48.690;12.362;2024-03-02T11:04:50;56.42;;;28.15;;
6671;SDS011;3372;48.690;12.362;2024-03-02T11:07:19;51.65;;;27.48;;
6671;SDS011;3372;48.690;12.362;2024-03-02T11:09:59;50.22;;;27.80;;
6671;SDS011;3372;48.690;12.362;2024-03-02T11:12:52;46.95;;;25.02;;
6671;SDS011;3372;48.690;12.362;2024-03-02T11:15:19;48.47;;;27.13;;
6671;SDS011;3372;48.690;12.362;2024-03-02T11:17:45;47.47;;;25.67;;
6671;SDS011;3372;48.690;12.362;2024-03-02T11:20:12;49.13;;;25.92;;
6671;SDS011;3372;48.690;12.362;2024-03-02T11:22:38;50.15;;;26.30;;
6671;SDS011;3372;48.690;12.362;2024-03-02T11:25:05;53.25;;;25.55;;
6671;SDS011;3372;48.690;12.362;2024-03-02T11:30:48;45.78;;;26.15;;
6671;SDS011;3372;48.690;12.362;2024-03-02T11:33:09;47.88;;;25.73;;
6671;SDS011;3372;48.690;12.362;2024-03-02T11:35:35;45.95;;;24.42;;
6671;SDS011;3372;48.690;12.362;2024-03-02T11:38:02;44.45;;;25.33;;
6671;SDS011;3372;48.690;12.362;2024-03-02T11:40:28;46.63;;;26.85;;
6671;SDS011;3372;48.690;12.362;2024-03-02T11:42:55;42.47;;;23.58;;
6671;SDS011;3372;48.690;12.362;2024-03-02T11:45:22;47.63;;;26.58;;
6671;SDS011;3372;48.690;12.362;2024-03-02T11:47:53;46.30;;;26.40;;
6671;SDS011;3372;48.690;12.362;2024-03-02T11:51:01;50.35;;;28.08;;
6671;SDS011;3372;48.690;12.362;2024-03-02T11:53:09;45.80;;;27.85;;
6671;SDS011;3372;48.690;12.362;2024-03-02T11:55:37;47.53;;;25.20;;
6671;SDS011;3372;48.690;12.362;2024-03-02T11:58:11;43.75;;;24.25;;
6671;SDS011;3372;48.690;12.362;2024-03-02T12:00:37;46.05;;;24.95;;
6671;SDS011;3372;48.690;12.362;2024-03-02T12:03:04;42.83;;;23.60;;
6671;SDS011;3372;48.690;12.362;2024-03-02T12:05:30;48.30;;;24.38;;
6671;SDS011;3372;48.690;12.362;2024-03-02T12:08:06;43.63;;;25.55;;
6671;SDS011;3372;48.690;12.362;2024-03-02T12:10:33;49.90;;;27.00;;
6671;SDS011;3372;48.690;12.362;2024-03-02T12:13:00;46.22;;;25.17;;
6671;SDS011;3372;48.690;12.362;2024-03-02T12:15:26;42.75;;;23.98;;
6671;SDS011;3372;48.690;12.362;2024-03-02T12:17:53;41.50;;;23.38;;
6671;SDS011;3372;48.690;12.362;2024-03-02T12:20:20;42.28;;;24.35;;
6671;SDS011;3372;48.690;12.362;2024-03-02T12:22:46;45.60;;;25.38;;
6671;SDS011;3372;48.690;12.362;2024-03-02T12:25:12;40.72;;;24.30;;
6671;SDS011;3372;48.690;12.362;2024-03-02T12:27:39;44.28;;;23.42;;
6671;SDS011;3372;48.690;12.362;2024-03-02T12:30:06;42.50;;;23.70;;
6671;SDS011;3372;48.690;12.362;2024-03-02T12:32:35;45.83;;;22.98;;
6671;SDS011;3372;48.690;12.362;2024-03-02T12:35:01;42.63;;;23.95;;
6671;SDS011;3372;48.690;12.362;2024-03-02T12:37:29;45.47;;;25.52;;
6671;SDS011;3372;48.690;12.362;2024-03-02T12:39:55;45.15;;;25.20;;
6671;SDS011;3372;48.690;12.362;2024-03-02T12:42:21;41.85;;;23.35;;
6671;SDS011;3372;48.690;12.362;2024-03-02T12:44:47;42.75;;;22.70;;
6671;SDS011;3372;48.690;12.362;2024-03-02T12:47:13;39.95;;;22.38;;
6671;SDS011;3372;48.690;12.362;2024-03-02T12:49:42;39.83;;;22.65;;
6671;SDS011;3372;48.690;12.362;2024-03-02T12:52:08;40.78;;;22.85;;
6671;SDS011;3372;48.690;12.362;2024-03-02T12:54:34;45.72;;;23.67;;
6671;SDS011;3372;48.690;12.362;2024-03-02T12:57:00;37.28;;;22.05;;
6671;SDS011;3372;48.690;12.362;2024-03-02T12:59:27;39.38;;;23.27;;
6671;SDS011;3372;48.690;12.362;2024-03-02T13:01:54;38.08;;;21.88;;
6671;SDS011;3372;48.690;12.362;2024-03-02T13:04:23;43.88;;;22.45;;
6671;SDS011;3372;48.690;12.362;2024-03-02T13:06:49;37.83;;;22.33;;
6671;SDS011;3372;48.690;12.362;2024-03-02T13:09:16;38.00;;;22.42;;
6671;SDS011;3372;48.690;12.362;2024-03-02T13:11:42;40.15;;;21.45;;
6671;SDS011;3372;48.690;12.362;2024-03-02T13:14:10;39.55;;;22.40;;
6671;SDS011;3372;48.690;12.362;2024-03-02T13:16:39;36.90;;;21.80;;
6671;SDS011;3372;48.690;12.362;2024-03-02T13:19:09;36.47;;;22.48;;
6671;SDS011;3372;48.690;12.362;2024-03-02T13:21:35;36.95;;;20.63;;
6671;SDS011;3372;48.690;12.362;2024-03-02T13:24:01;36.58;;;20.52;;
6671;SDS011;3372;48.690;12.362;2024-03-02T13:26:28;40.22;;;22.65;;
6671;SDS011;3372;48.690;12.362;2024-03-02T13:28:54;33.63;;;21.08;;
6671;SDS011;3372;48.690;12.362;2024-03-02T13:31:20;36.13;;;22.17;;
6671;SDS011;3372;48.690;12.362;2024-03-02T13:33:46;38.40;;;20.35;;
6671;SDS011;3372;48.690;12.362;2024-03-02T13:36:12;32.72;;;20.73;;
6671;SDS011;3372;48.690;12.362;2024-03-02T13:38:38;35.15;;;20.88;;
6671;SDS011;3372;48.690;12.362;2024-03-02T13:41:04;31.42;;;18.90;;
6671;SDS011;3372;48.690;12.362;2024-03-02T13:43:30;28.38;;;17.83;;
6671;SDS011;3372;48.690;12.362;2024-03-02T13:46:00;31.45;;;17.33;;
6671;SDS011;3372;48.690;12.362;2024-03-02T13:48:26;28.52;;;17.70;;
6671;SDS011;3372;48.690;12.362;2024-03-02T13:50:52;26.10;;;16.45;;
6671;SDS011;3372;48.690;12.362;2024-03-02T13:53:18;27.25;;;16.05;;
6671;SDS011;3372;48.690;12.362;2024-03-02T13:55:44;26.88;;;15.35;;
6671;SDS011;3372;48.690;12.362;2024-03-02T13:58:11;28.42;;;16.90;;
6671;SDS011;3372;48.690;12.362;2024-03-02T14:00:37;31.73;;;18.45;;
6671;SDS011;3372;48.690;12.362;2024-03-02T14:03:04;25.73;;;15.45;;
6671;SDS011;3372;48.690;12.362;2024-03-02T14:05:30;25.15;;;16.67;;
6671;SDS011;3372;48.690;12.362;2024-03-02T14:07:56;28.85;;;17.05;;
6671;SDS011;3372;48.690;12.362;2024-03-02T14:10:22;26.83;;;15.88;;
6671;SDS011;3372;48.690;12.362;2024-03-02T14:12:48;26.25;;;15.90;;
6671;SDS011;3372;48.690;12.362;2024-03-02T14:15:14;28.20;;;16.33;;
6671;SDS011;3372;48.690;12.362;2024-03-02T14:17:40;27.23;;;15.77;;
6671;SDS011;3372;48.690;12.362;2024-03-02T14:20:07;29.95;;;16.80;;
6671;SDS011;3372;48.690;12.362;2024-03-02T14:22:35;26.00;;;16.45;;
6671;SDS011;3372;48.690;12.362;2024-03-02T14:25:02;28.40;;;16.35;;
6671;SDS011;3372;48.690;12.362;2024-03-02T14:27:28;24.20;;;15.80;;
6671;SDS011;3372;48.690;12.362;2024-03-02T14:29:54;27.83;;;15.57;;
6671;SDS011;3372;48.690;12.362;2024-03-02T14:32:20;28.23;;;16.48;;
6671;SDS011;3372;48.690;12.362;2024-03-02T14:34:46;26.05;;;16.77;;
6671;SDS011;3372;48.690;12.362;2024-03-02T14:37:13;29.58;;;17.48;;
6671;SDS011;3372;48.690;12.362;2024-03-02T14:39:39;29.70;;;18.02;;
6671;SDS011;3372;48.690;12.362;2024-03-02T14:42:06;25.98;;;15.95;;
6671;SDS011;3372;48.690;12.362;2024-03-02T14:44:32;26.75;;;16.58;;
6671;SDS011;3372;48.690;12.362;2024-03-02T14:46:59;27.45;;;17.23;;
6671;SDS011;3372;48.690;12.362;2024-03-02T14:49:25;30.02;;;18.20;;
6671;SDS011;3372;48.690;12.362;2024-03-02T14:51:51;28.95;;;16.92;;
6671;SDS011;3372;48.690;12.362;2024-03-02T14:54:18;28.73;;;17.67;;
6671;SDS011;3372;48.690;12.362;2024-03-02T14:56:44;26.58;;;16.80;;
6671;SDS011;3372;48.690;12.362;2024-03-02T14:59:09;28.88;;;16.98;;